Time;durP1;ratioP1;P1;durP2;ratioP2;P2;SDS_P1;SDS_P2;PMS_P1;PMS_P2;Temp;Humidity;BMP_temperature;BMP_pressure;BME280_temperature;BME280_humidity;BME280_pressure;Samples;Min_cycle;Max_cycle;Signal;HPM_P1;HPM_P2
2021/03/06 00:00:07;;;;;;;27.88;26.00;;;1.40;71.10;;;;;;5095741;28;20305;-77
2021/03/06 00:02:34;;;;;;;27.85;26.00;;;1.40;70.10;;;;;;5095749;28;20197;-77
2021/03/06 00:05:01;;;;;;;27.20;25.50;;;1.40;70.00;;;;;;5095809;28;20199;-77
2021/03/06 00:07:28;;;;;;;26.10;24.60;;;1.30;69.00;;;;;;5095695;28;20202;-77
2021/03/06 00:09:54;;;;;;;26.38;24.88;;;1.40;69.10;;;;;;5095184;28;20309;-77
2021/03/06 00:12:20;;;;;;;26.75;25.15;;;1.30;69.10;;;;;;5095953;28;20203;-77
2021/03/06 00:14:47;;;;;;;26.50;24.95;;;1.30;69.40;;;;;;5097017;28;20228;-77
2021/03/06 00:17:13;;;;;;;26.42;24.75;;;1.30;70.20;;;;;;5095948;28;20200;-77
2021/03/06 00:19:40;;;;;;;27.20;25.50;;;1.30;71.50;;;;;;5096711;28;20221;-77
2021/03/06 00:22:07;;;;;;;26.95;25.23;;;1.20;71.70;;;;;;5095463;28;20197;-77
2021/03/06 00:24:33;;;;;;;25.83;24.13;;;1.30;71.50;;;;;;5095504;28;20618;-77
2021/03/06 00:27:00;;;;;;;26.25;24.50;;;1.30;71.70;;;;;;5095241;28;20247;-77
2021/03/06 00:29:26;;;;;;;26.77;24.90;;;1.20;70.50;;;;;;5095382;28;20222;-77
2021/03/06 00:31:53;;;;;;;26.33;24.55;;;1.20;70.20;;;;;;5095256;28;20199;-77
2021/03/06 00:34:19;;;;;;;26.23;24.73;;;1.10;70.20;;;;;;5095329;28;20598;-77
2021/03/06 00:36:45;;;;;;;25.80;24.27;;;1.20;70.40;;;;;;5094982;28;20717;-77
2021/03/06 00:39:13;;;;;;;26.60;25.00;;;1.10;70.10;;;;;;5094865;28;20714;-77
2021/03/06 00:41:39;;;;;;;26.33;24.73;;;1.10;71.20;;;;;;5095166;28;20292;-77
2021/03/06 00:44:06;;;;;;;27.50;25.90;;;1.10;72.60;;;;;;5095724;28;20192;-77
2021/03/06 00:46:32;;;;;;;26.45;24.90;;;1.10;71.20;;;;;;5094546;28;20194;-77
2021/03/06 00:48:58;;;;;;;25.85;24.30;;;1.10;71.10;;;;;;5095884;28;20222;-77
2021/03/06 00:51:25;;;;;;;26.83;25.13;;;1.00;70.20;;;;;;5094790;28;20201;-77
2021/03/06 00:53:51;;;;;;;26.00;24.50;;;1.00;69.60;;;;;;5094838;28;20743;-77
2021/03/06 00:56:18;;;;;;;26.60;25.00;;;1.00;69.70;;;;;;5094707;28;20582;-77
2021/03/06 00:58:45;;;;;;;26.95;25.35;;;1.00;69.20;;;;;;5095136;28;20340;-77
2021/03/06 01:01:12;;;;;;;27.17;25.48;;;1.00;70.70;;;;;;5094910;28;20270;-77
2021/03/06 01:03:38;;;;;;;27.40;25.80;;;1.00;71.20;;;;;;5094938;28;20296;-77
2021/03/06 01:06:05;;;;;;;26.40;24.90;;;1.00;70.90;;;;;;5094496;28;20733;-77
2021/03/06 01:08:32;;;;;;;25.30;23.90;;;1.00;70.80;;;;;;5094923;28;20215;-77
2021/03/06 01:10:59;;;;;;;27.20;25.60;;;1.00;70.40;;;;;;5094679;28;20258;-77
2021/03/06 01:13:27;;;;;;;26.55;24.88;;;1.00;70.50;;;;;;5094380;28;20199;-77
2021/03/06 01:15:53;;;;;;;26.15;24.45;;;1.00;70.30;;;;;;5094172;28;20216;-77
2021/03/06 01:18:19;;;;;;;26.98;25.33;;;0.90;69.30;;;;;;5094346;28;20270;-77
2021/03/06 01:20:46;;;;;;;26.20;24.60;;;0.80;69.40;;;;;;5094230;28;20202;-77
2021/03/06 01:23:12;;;;;;;27.83;25.95;;;0.80;70.30;;;;;;5093357;28;20204;-77
2021/03/06 01:25:39;;;;;;;25.98;24.52;;;0.80;71.20;;;;;;5094142;28;20250;-76
2021/03/06 01:28:06;;;;;;;26.80;25.20;;;0.80;71.20;;;;;;5094031;28;20208;-77
2021/03/06 01:30:34;;;;;;;27.02;25.42;;;0.80;70.90;;;;;;5094103;28;20289;-77
2021/03/06 01:33:01;;;;;;;25.92;24.33;;;0.70;70.70;;;;;;5094078;28;20211;-77
2021/03/06 01:35:27;;;;;;;27.02;25.33;;;0.70;70.00;;;;;;5093806;28;20220;-77
2021/03/06 01:37:54;;;;;;;27.50;25.70;;;0.70;70.00;;;;;;5093784;28;20199;-77
2021/03/06 01:40:24;;;;;;;27.27;25.25;;;0.70;70.10;;;;;;5093617;28;20613;-77
2021/03/06 01:42:50;;;;;;;27.08;25.38;;;0.80;69.60;;;;;;5093923;28;20202;-77
2021/03/06 01:45:17;;;;;;;27.55;25.85;;;0.80;69.10;;;;;;5093786;28;20245;-77
2021/03/06 01:47:44;;;;;;;26.98;25.15;;;0.80;72.30;;;;;;5093724;28;20328;-77
2021/03/06 01:50:12;;;;;;;27.33;25.50;;;0.70;73.10;;;;;;5095876;28;20619;-77
2021/03/06 01:52:39;;;;;;;27.70;26.02;;;0.70;75.40;;;;;;5095486;28;20231;-77
2021/03/06 01:55:07;;;;;;;27.13;25.42;;;0.70;73.30;;;;;;5093898;28;20344;-77
2021/03/06 01:57:33;;;;;;;26.33;24.63;;;0.60;72.30;;;;;;5093448;28;20198;-77
2021/03/06 02:00:00;;;;;;;25.40;24.00;;;0.60;71.50;;;;;;5093523;28;20581;-77
2021/03/06 02:02:26;;;;;;;27.35;25.60;;;0.60;71.90;;;;;;5093322;28;20294;-77
2021/03/06 02:04:54;;;;;;;27.33;25.63;;;0.60;72.50;;;;;;5093026;28;20216;-77
2021/03/06 02:07:20;;;;;;;26.73;25.13;;;0.60;72.80;;;;;;5093473;28;20209;-77
2021/03/06 02:09:47;;;;;;;27.58;25.85;;;0.60;73.50;;;;;;5093197;28;20223;-77
2021/03/06 02:12:22;;;;;;;27.85;25.95;;;0.50;73.60;;;;;;5093547;28;20284;-77
2021/03/06 02:15:02;;;;;;;27.80;25.90;;;0.50;74.00;;;;;;5093252;28;20255;-77
2021/03/06 02:17:35;;;;;;;26.48;24.98;;;0.50;74.50;;;;;;5093624;28;20211;-77
2021/03/06 02:20:23;;;;;;;28.40;26.40;;;0.40;74.80;;;;;;5093651;28;20243;-77
2021/03/06 02:23:26;;;;;;;27.73;25.92;;;0.40;75.00;;;;;;5093074;28;20203;-76
2021/03/06 02:26:17;;;;;;;27.98;26.17;;;0.30;75.70;;;;;;5092979;28;20196;-76
2021/03/06 02:28:52;;;;;;;28.05;26.30;;;0.20;77.10;;;;;;5080081;28;20313;-76
2021/03/06 02:31:21;;;;;;;28.40;26.67;;;0.10;76.70;;;;;;5093144;28;20206;-76
2021/03/06 02:33:53;;;;;;;28.40;26.65;;;0.10;77.30;;;;;;5092707;28;20195;-76
2021/03/06 02:36:23;;;;;;;28.30;26.50;;;0.00;81.60;;;;;;5092819;28;20224;-76
2021/03/06 02:38:53;;;;;;;28.08;26.00;;;0.00;78.50;;;;;;5092769;28;20287;-77
2021/03/06 02:41:21;;;;;;;28.00;26.30;;;-0.10;77.80;;;;;;5092588;28;20556;-76
2021/03/06 02:43:50;;;;;;;30.00;28.10;;;-0.10;77.30;;;;;;5092933;28;20195;-76
2021/03/06 02:46:17;;;;;;;28.10;26.50;;;-0.10;77.30;;;;;;5092314;28;20195;-78
2021/03/06 02:48:45;;;;;;;28.40;26.65;;;-0.10;77.30;;;;;;5092640;28;20242;-76
2021/03/06 02:51:11;;;;;;;29.00;27.25;;;-0.20;77.30;;;;;;5092787;28;20202;-77
2021/03/06 02:53:37;;;;;;;27.60;26.00;;;-0.20;78.20;;;;;;5092711;28;20199;-76
2021/03/06 02:56:04;;;;;;;28.27;26.45;;;-0.30;78.20;;;;;;5092510;28;20305;-76
2021/03/06 02:58:45;;;;;;;28.92;27.20;;;-0.30;77.90;;;;;;5092570;28;20219;-76
2021/03/06 03:01:21;;;;;;;27.90;26.20;;;-0.40;78.10;;;;;;5092764;28;20199;-76
2021/03/06 03:03:56;;;;;;;27.27;25.63;;;-0.40;78.30;;;;;;5092697;28;20690;-76
2021/03/06 03:06:28;;;;;;;28.75;26.77;;;-0.40;78.40;;;;;;5092438;28;20209;-76
2021/03/06 03:09:01;;;;;;;29.80;27.77;;;-0.50;78.60;;;;;;5092483;28;20651;-76
2021/03/06 03:11:35;;;;;;;27.70;26.10;;;-0.40;78.60;;;;;;5092448;28;20199;-76
2021/03/06 03:14:03;;;;;;;27.98;26.27;;;-0.50;78.50;;;;;;5092702;28;20207;-76
2021/03/06 03:16:34;;;;;;;27.38;25.77;;;-0.60;78.60;;;;;;5092256;28;20226;-76
2021/03/06 03:19:07;;;;;;;27.10;25.50;;;-0.60;78.60;;;;;;5092400;28;20549;-76
2021/03/06 03:21:34;;;;;;;28.13;26.38;;;-0.60;78.60;;;;;;5092474;28;20195;-76
2021/03/06 03:24:05;;;;;;;28.17;26.35;;;-0.60;78.50;;;;;;5092414;28;20198;-76
2021/03/06 03:26:32;;;;;;;28.63;26.83;;;-0.70;78.90;;;;;;5092242;28;20252;-76
2021/03/06 03:28:59;;;;;;;28.65;26.55;;;-0.80;79.10;;;;;;5092263;28;20211;-76
2021/03/06 03:31:27;;;;;;;28.27;26.35;;;-0.80;79.20;;;;;;5092374;28;20223;-76
2021/03/06 03:33:55;;;;;;;29.23;27.33;;;-0.80;79.40;;;;;;5092332;28;20195;-76
2021/03/06 03:36:24;;;;;;;29.27;27.40;;;-0.80;79.60;;;;;;5092024;28;20265;-77
2021/03/06 03:38:51;;;;;;;29.30;27.30;;;-0.70;79.30;;;;;;5092263;28;20297;-76
2021/03/06 03:41:18;;;;;;;28.73;26.92;;;-0.80;79.20;;;;;;5091916;28;20195;-76
2021/03/06 03:43:45;;;;;;;27.55;25.75;;;-0.90;79.40;;;;;;5092286;28;20191;-76
2021/03/06 03:46:12;;;;;;;28.98;27.15;;;-0.90;79.40;;;;;;5094470;28;20197;-76
2021/03/06 03:48:42;;;;;;;27.77;26.08;;;-1.00;79.60;;;;;;5095885;28;20221;-76
2021/03/06 03:51:09;;;;;;;29.52;27.50;;;-1.10;80.20;;;;;;5095957;28;20206;-76
2021/03/06 03:53:36;;;;;;;29.13;27.25;;;-1.10;80.50;;;;;;5096030;28;20198;-76
2021/03/06 03:56:03;;;;;;;29.63;27.73;;;-1.10;80.70;;;;;;5095884;28;20313;-76
2021/03/06 03:58:30;;;;;;;29.08;27.27;;;-1.10;80.80;;;;;;5095816;28;20219;-76
2021/03/06 04:00:57;;;;;;;28.13;26.42;;;-1.10;81.00;;;;;;5095787;28;20191;-76
2021/03/06 04:03:25;;;;;;;29.10;27.20;;;-1.10;81.20;;;;;;5095525;28;20298;-77
2021/03/06 04:05:51;;;;;;;29.45;27.25;;;-1.00;80.70;;;;;;5095660;28;20205;-76
2021/03/06 04:08:17;;;;;;;29.23;27.23;;;-1.00;80.40;;;;;;5095768;28;20222;-76
2021/03/06 04:10:44;;;;;;;28.20;26.30;;;-1.00;80.80;;;;;;5095746;28;20673;-76
2021/03/06 04:13:11;;;;;;;27.90;26.20;;;-1.00;81.70;;;;;;5095615;28;20240;-77
2021/03/06 04:15:37;;;;;;;29.30;27.15;;;-1.00;84.10;;;;;;5095443;28;20299;-77
2021/03/06 04:18:05;;;;;;;71.30;33.17;;;-1.00;84.80;;;;;;5095536;28;20210;-76
2021/03/06 04:20:32;;;;;;;28.63;26.63;;;-1.00;83.30;;;;;;5095480;28;20290;-76
2021/03/06 04:22:59;;;;;;;28.30;26.33;;;-1.00;85.90;;;;;;5095428;28;20248;-76
2021/03/06 04:25:25;;;;;;;28.08;26.38;;;-1.00;83.80;;;;;;5095341;28;20191;-76
2021/03/06 04:27:53;;;;;;;28.60;26.70;;;-1.00;83.10;;;;;;5095135;28;20205;-76
2021/03/06 04:30:20;;;;;;;29.02;27.13;;;-1.00;82.70;;;;;;5095205;28;20682;-76
2021/03/06 04:32:46;;;;;;;28.65;26.63;;;-1.00;88.70;;;;;;5095097;28;20197;-76
2021/03/06 04:35:13;;;;;;;28.50;26.50;;;-1.10;86.20;;;;;;5095242;28;20195;-76
2021/03/06 04:37:40;;;;;;;29.05;27.05;;;-1.10;83.80;;;;;;5094986;28;20195;-76
2021/03/06 04:40:09;;;;;;;28.60;26.63;;;-1.10;82.80;;;;;;5094792;28;20591;-76
2021/03/06 04:42:35;;;;;;;28.13;26.13;;;-1.10;82.20;;;;;;5095047;28;20199;-76
2021/03/06 04:45:05;;;;;;;28.48;26.42;;;-1.20;82.70;;;;;;5094735;28;20199;-76
2021/03/06 04:47:31;;;;;;;29.17;27.17;;;-1.20;82.70;;;;;;5094913;28;20203;-76
2021/03/06 04:49:57;;;;;;;28.65;26.65;;;-1.30;82.30;;;;;;5094814;28;20226;-77
2021/03/06 04:52:24;;;;;;;29.60;27.55;;;-1.20;82.00;;;;;;5094822;28;20207;-76
2021/03/06 04:54:50;;;;;;;28.58;26.58;;;-1.30;82.00;;;;;;5094908;28;20195;-76
2021/03/06 04:57:17;;;;;;;27.85;26.05;;;-1.30;82.10;;;;;;5093277;28;20356;-76
2021/03/06 04:59:43;;;;;;;29.08;27.08;;;-1.40;82.10;;;;;;5094698;28;20219;-76
2021/03/06 05:02:11;;;;;;;31.25;29.17;;;-1.40;82.10;;;;;;5094662;28;20286;-76
2021/03/06 05:04:37;;;;;;;28.67;26.98;;;-1.40;82.20;;;;;;5094522;28;20670;-76
2021/03/06 05:07:04;;;;;;;28.77;27.02;;;-1.40;82.70;;;;;;5094353;28;20285;-77
2021/03/06 05:09:30;;;;;;;848.50;141.07;;;-1.40;82.20;;;;;;5094422;28;20215;-76
2021/03/06 05:11:57;;;;;;;172.93;40.95;;;-1.40;83.30;;;;;;5094405;28;20231;-76
2021/03/06 05:14:23;;;;;;;27.30;25.40;;;-1.30;90.10;;;;;;5094518;28;20550;-76
2021/03/06 05:16:49;;;;;;;28.17;26.05;;;-1.30;86.50;;;;;;5094131;28;20239;-76
2021/03/06 05:19:16;;;;;;;27.20;25.52;;;-1.30;85.10;;;;;;5094225;28;20215;-76
2021/03/06 05:21:43;;;;;;;26.73;24.92;;;-1.40;83.90;;;;;;5094201;28;20259;-76
2021/03/06 05:24:10;;;;;;;28.38;26.67;;;-1.40;83.30;;;;;;5094278;28;20282;-77
2021/03/06 05:26:36;;;;;;;28.92;26.75;;;-1.40;83.00;;;;;;5093970;28;20535;-76
2021/03/06 05:29:03;;;;;;;28.88;26.98;;;-1.40;82.30;;;;;;5094173;28;20272;-76
2021/03/06 05:31:29;;;;;;;27.67;25.85;;;-1.40;82.30;;;;;;5094073;28;20614;-76
2021/03/06 05:33:55;;;;;;;28.20;26.25;;;-1.40;82.00;;;;;;5093979;28;20195;-76
2021/03/06 05:36:23;;;;;;;28.95;26.92;;;-1.50;81.70;;;;;;5093585;28;20705;-76
2021/03/06 05:38:50;;;;;;;28.38;26.48;;;-1.60;82.60;;;;;;5093669;28;20215;-76
2021/03/06 05:41:19;;;;;;;29.42;27.63;;;-1.70;83.00;;;;;;5093506;28;20673;-76
2021/03/06 05:43:45;;;;;;;28.90;27.00;;;-1.70;83.00;;;;;;5093765;28;20219;-76
2021/03/06 05:46:14;;;;;;;28.42;26.52;;;-1.70;82.80;;;;;;5093399;28;20187;-76
2021/03/06 05:48:40;;;;;;;28.48;26.58;;;-1.80;82.80;;;;;;5093786;28;20626;-78
2021/03/06 05:51:07;;;;;;;28.77;26.75;;;-1.80;82.90;;;;;;5093696;28;20225;-76
2021/03/06 05:53:38;;;;;;;29.00;27.15;;;-1.80;83.00;;;;;;5093564;28;20199;-76
2021/03/06 05:56:07;;;;;;;29.55;27.65;;;-1.70;83.40;;;;;;5093322;28;20223;-76
2021/03/06 05:58:35;;;;;;;28.33;26.50;;;-1.70;82.90;;;;;;5093462;28;20613;-77
2021/03/06 06:01:03;;;;;;;30.45;28.35;;;-1.70;82.80;;;;;;5093645;28;20208;-76
2021/03/06 06:03:31;;;;;;;29.35;27.25;;;-1.70;82.60;;;;;;5093433;28;20223;-76
2021/03/06 06:05:58;;;;;;;30.45;28.35;;;-1.60;81.90;;;;;;5093301;28;20191;-76
2021/03/06 06:08:26;;;;;;;29.65;27.48;;;-1.60;81.40;;;;;;5092858;28;20219;-76
2021/03/06 06:10:53;;;;;;;29.88;28.05;;;-1.60;81.30;;;;;;5093305;28;20194;-76
2021/03/06 06:13:20;;;;;;;30.83;28.83;;;-1.70;81.20;;;;;;5093385;28;20195;-76
2021/03/06 06:15:47;;;;;;;28.80;26.70;;;-1.80;81.50;;;;;;5093191;28;20243;-76
2021/03/06 06:18:14;;;;;;;30.92;28.50;;;-1.80;81.60;;;;;;5093110;28;20232;-76
2021/03/06 06:20:40;;;;;;;29.58;27.48;;;-1.90;81.80;;;;;;5093116;28;20657;-76
2021/03/06 06:23:11;;;;;;;28.58;26.70;;;-1.90;82.60;;;;;;5093102;28;20191;-76
2021/03/06 06:25:38;;;;;;;66.95;29.98;;;-1.80;82.30;;;;;;5093090;28;20195;-75
2021/03/06 06:28:07;;;;;;;30.92;28.63;;;-1.80;82.30;;;;;;5093023;28;20198;-76
2021/03/06 06:30:33;;;;;;;28.73;26.52;;;-1.80;82.70;;;;;;5093101;28;20198;-76
2021/03/06 06:32:59;;;;;;;29.92;27.65;;;-1.80;82.60;;;;;;5093006;28;20205;-76
2021/03/06 06:35:26;;;;;;;567.03;89.50;;;-1.70;89.60;;;;;;5092784;28;20195;-76
2021/03/06 06:38:00;;;;;;;28.55;26.40;;;-1.60;93.10;;;;;;5092814;28;20673;-76
2021/03/06 06:40:29;;;;;;;28.17;26.27;;;-1.40;90.30;;;;;;5092740;28;20191;-76
2021/03/06 06:42:56;;;;;;;28.08;26.25;;;-1.40;88.10;;;;;;5092928;28;20202;-76
2021/03/06 06:45:24;;;;;;;28.38;26.58;;;-1.30;85.70;;;;;;5092644;28;20290;-75
2021/03/06 06:47:53;;;;;;;28.05;26.15;;;-1.30;84.50;;;;;;5092483;28;20198;-76
2021/03/06 06:50:30;;;;;;;28.65;26.83;;;-1.20;82.90;;;;;;5092796;28;20277;-76
2021/03/06 06:52:56;;;;;;;30.58;28.35;;;-1.20;82.40;;;;;;5092835;28;20202;-76
2021/03/06 06:55:34;;;;;;;29.73;27.67;;;-1.10;81.40;;;;;;5092651;28;20607;-76
2021/03/06 06:58:01;;;;;;;28.05;26.25;;;-0.90;80.30;;;;;;5092577;28;20201;-76
2021/03/06 07:00:30;;;;;;;26.83;25.08;;;-0.80;78.90;;;;;;5092679;28;20202;-76
2021/03/06 07:02:57;;;;;;;28.90;27.10;;;-0.70;77.70;;;;;;5092603;28;20199;-76
2021/03/06 07:05:32;;;;;;;29.10;27.27;;;-0.60;76.80;;;;;;5092733;28;20259;-76
2021/03/06 07:07:59;;;;;;;28.98;27.00;;;-0.60;76.20;;;;;;5092710;28;20210;-76
2021/03/06 07:10:33;;;;;;;29.13;27.23;;;-0.50;75.40;;;;;;5092523;28;20207;-76
2021/03/06 07:13:01;;;;;;;28.92;27.00;;;-0.40;74.30;;;;;;5092642;28;20613;-76
2021/03/06 07:15:30;;;;;;;28.85;27.05;;;-0.10;71.70;;;;;;5092415;28;20279;-77
2021/03/06 07:17:58;;;;;;;27.88;26.17;;;-0.10;71.50;;;;;;5092406;28;20708;-76
2021/03/06 07:20:30;;;;;;;27.35;25.63;;;-0.10;70.80;;;;;;5093900;28;20206;-76
2021/03/06 07:22:58;;;;;;;27.83;26.13;;;0.10;70.30;;;;;;5096578;28;20282;-76
2021/03/06 07:25:26;;;;;;;29.00;27.08;;;0.10;70.10;;;;;;5096494;28;20256;-76
2021/03/06 07:27:53;;;;;;;28.35;26.45;;;0.10;70.10;;;;;;5096460;28;20195;-76
2021/03/06 07:30:20;;;;;;;26.45;24.95;;;0.10;70.10;;;;;;5096449;28;20221;-76
2021/03/06 07:32:48;;;;;;;28.40;26.63;;;0.30;69.50;;;;;;5096378;28;20199;-76
2021/03/06 07:35:16;;;;;;;28.60;26.80;;;0.30;69.50;;;;;;5096385;28;20192;-76
2021/03/06 07:37:43;;;;;;;27.90;26.23;;;0.40;69.50;;;;;;5096003;28;20214;-76
2021/03/06 07:40:12;;;;;;;27.52;25.83;;;0.40;68.80;;;;;;5095893;28;20693;-76
2021/03/06 07:42:45;;;;;;;27.52;25.92;;;0.50;68.40;;;;;;5096139;28;20221;-76
2021/03/06 07:45:15;;;;;;;28.27;26.48;;;0.50;68.00;;;;;;5096084;28;20680;-76
2021/03/06 07:47:43;;;;;;;27.33;25.42;;;0.60;68.10;;;;;;5096029;28;20206;-77
2021/03/06 07:50:19;;;;;;;28.45;26.65;;;0.70;67.90;;;;;;5095982;28;20243;-76
2021/03/06 07:52:47;;;;;;;28.33;26.48;;;0.90;68.00;;;;;;5095959;28;20198;-76
2021/03/06 07:55:14;;;;;;;27.48;25.50;;;1.00;68.30;;;;;;5096137;28;20200;-76
2021/03/06 07:58:03;;;;;;;28.45;26.52;;;1.10;67.60;;;;;;5095824;28;20220;-76
2021/03/06 08:00:48;;;;;;;29.40;27.42;;;1.20;66.30;;;;;;5095796;28;20206;-76
2021/03/06 08:03:36;;;;;;;28.38;26.58;;;1.20;66.30;;;;;;5095722;28;20705;-76
2021/03/06 08:06:21;;;;;;;27.85;26.15;;;1.20;71.60;;;;;;5095871;28;20216;-76
2021/03/06 08:08:59;;;;;;;29.15;26.98;;;1.30;68.70;;;;;;5095743;28;20229;-76
2021/03/06 08:11:35;;;;;;;29.02;27.02;;;1.30;73.70;;;;;;5095663;28;20201;-77
2021/03/06 08:14:04;;;;;;;28.00;26.30;;;1.50;69.20;;;;;;5095823;28;20197;-76
2021/03/06 08:16:40;;;;;;;27.77;26.08;;;1.60;64.90;;;;;;5095533;28;20221;-76
2021/03/06 08:19:22;;;;;;;28.40;26.63;;;1.50;63.90;;;;;;5095536;28;20308;-76
2021/03/06 08:21:51;;;;;;;27.80;26.02;;;1.40;65.30;;;;;;5095312;28;20209;-76
2021/03/06 08:24:28;;;;;;;27.42;25.73;;;1.50;68.50;;;;;;5095346;28;20712;-76
2021/03/06 08:27:14;;;;;;;26.70;25.10;;;1.60;65.30;;;;;;5095219;28;20212;-76
2021/03/06 08:29:41;;;;;;;26.90;25.20;;;1.60;64.50;;;;;;5095389;28;20297;-76
2021/03/06 08:32:12;;;;;;;27.50;25.90;;;1.70;64.40;;;;;;5094924;28;20211;-76
2021/03/06 08:34:40;;;;;;;26.30;24.65;;;1.80;64.40;;;;;;5095405;28;20202;-76
2021/03/06 08:37:30;;;;;;;26.90;25.15;;;2.00;63.40;;;;;;5094867;28;20702;-76
2021/03/06 08:39:59;;;;;;;25.85;24.25;;;2.10;63.50;;;;;;5094839;28;20218;-76
2021/03/06 08:42:28;;;;;;;27.35;25.55;;;2.20;63.30;;;;;;5094983;28;20198;-76
2021/03/06 08:44:56;;;;;;;27.77;25.98;;;2.10;63.10;;;;;;5094865;28;20197;-76
2021/03/06 08:47:24;;;;;;;27.45;25.75;;;2.20;64.30;;;;;;5094812;28;20212;-76
2021/03/06 08:49:52;;;;;;;27.95;26.15;;;2.40;62.90;;;;;;5094794;28;20219;-76
2021/03/06 08:52:20;;;;;;;28.48;26.58;;;2.40;62.40;;;;;;5094966;28;20255;-76
2021/03/06 08:54:47;;;;;;;27.08;25.23;;;2.40;62.40;;;;;;5094754;28;20625;-76
2021/03/06 08:57:24;;;;;;;28.52;26.60;;;2.50;62.40;;;;;;5094488;28;20275;-76
2021/03/06 08:59:51;;;;;;;27.25;25.45;;;2.60;62.00;;;;;;5094809;28;20217;-76
2021/03/06 09:02:19;;;;;;;26.92;25.33;;;2.60;62.00;;;;;;5094731;28;20198;-76
2021/03/06 09:04:45;;;;;;;28.90;26.65;;;2.60;62.20;;;;;;5094593;28;20293;-76
2021/03/06 09:07:24;;;;;;;27.40;25.60;;;2.80;61.80;;;;;;5094424;28;20619;-77
2021/03/06 09:09:51;;;;;;;26.83;25.13;;;2.90;61.30;;;;;;5094515;28;20287;-76
2021/03/06 09:12:17;;;;;;;28.52;26.80;;;2.90;61.00;;;;;;5094477;28;20232;-76
2021/03/06 09:14:44;;;;;;;27.25;25.50;;;3.00;61.20;;;;;;5094457;28;20197;-76
2021/03/06 09:17:10;;;;;;;27.35;25.65;;;3.10;59.80;;;;;;5094169;28;20222;-76
2021/03/06 09:19:37;;;;;;;27.10;25.40;;;3.20;59.90;;;;;;5094290;28;20215;-76
2021/03/06 09:22:05;;;;;;;27.98;26.17;;;3.30;59.80;;;;;;5094285;28;20213;-76
2021/03/06 09:24:43;;;;;;;27.20;25.60;;;3.40;60.30;;;;;;5094428;28;20196;-76
2021/03/06 09:27:10;;;;;;;26.52;25.02;;;3.60;60.40;;;;;;5094151;28;20195;-77
2021/03/06 09:29:37;;;;;;;27.02;25.38;;;3.70;58.40;;;;;;5094223;28;20211;-76
2021/03/06 09:32:04;;;;;;;26.25;24.65;;;3.80;57.70;;;;;;5094237;28;20291;-77
2021/03/06 09:34:31;;;;;;;26.33;24.65;;;4.00;56.50;;;;;;5094000;28;20211;-77
2021/03/06 09:36:57;;;;;;;26.27;24.73;;;4.10;55.80;;;;;;5093859;28;20246;-76
2021/03/06 09:39:24;;;;;;;27.38;25.67;;;4.30;54.80;;;;;;5094001;28;20215;-77
2021/03/06 09:41:51;;;;;;;26.42;24.83;;;4.30;53.60;;;;;;5093660;28;20201;-77
2021/03/06 09:44:18;;;;;;;26.55;24.73;;;4.30;53.60;;;;;;5093425;28;20526;-77
2021/03/06 09:46:46;;;;;;;26.58;24.85;;;4.20;53.40;;;;;;5093397;28;20202;-79
2021/03/06 09:49:14;;;;;;;27.25;25.55;;;4.30;53.00;;;;;;5093724;28;20215;-77
2021/03/06 09:51:43;;;;;;;27.15;25.25;;;4.40;53.80;;;;;;5093794;28;20195;-77
2021/03/06 09:54:11;;;;;;;25.80;24.30;;;4.50;53.00;;;;;;5093786;28;20263;-77
2021/03/06 09:56:46;;;;;;;26.23;24.63;;;4.40;53.20;;;;;;5093421;28;20305;-77
2021/03/06 09:59:12;;;;;;;27.98;26.38;;;4.60;52.80;;;;;;5093486;28;20568;-77
2021/03/06 10:01:40;;;;;;;26.10;24.48;;;4.60;53.00;;;;;;5093657;28;20198;-77
2021/03/06 10:04:11;;;;;;;26.52;24.92;;;4.80;52.90;;;;;;5093387;28;20213;-77
2021/03/06 10:06:40;;;;;;;26.48;24.88;;;4.90;52.40;;;;;;5093393;28;20206;-77
2021/03/06 10:09:08;;;;;;;25.27;23.85;;;5.00;52.20;;;;;;5093309;28;20211;-77
2021/03/06 10:11:36;;;;;;;27.85;26.08;;;5.10;52.30;;;;;;5093462;28;20211;-77
2021/03/06 10:14:03;;;;;;;26.77;25.17;;;5.10;51.50;;;;;;5093757;28;20199;-77
2021/03/06 10:16:41;;;;;;;26.35;24.45;;;5.10;51.00;;;;;;5093202;28;20215;-77
2021/03/06 10:19:09;;;;;;;26.33;24.83;;;5.10;51.50;;;;;;5093290;28;20214;-77
2021/03/06 10:21:35;;;;;;;26.63;24.92;;;5.30;51.30;;;;;;5093287;28;20195;-77
2021/03/06 10:24:03;;;;;;;27.40;25.60;;;5.20;51.30;;;;;;5093288;28;20191;-77
2021/03/06 10:26:30;;;;;;;25.65;24.25;;;5.30;50.70;;;;;;5092978;28;20198;-77
2021/03/06 10:28:58;;;;;;;27.27;25.45;;;5.50;50.50;;;;;;5093103;28;20222;-77
2021/03/06 10:31:37;;;;;;;26.08;24.48;;;5.60;50.50;;;;;;5093059;28;20570;-77
2021/03/06 10:34:24;;;;;;;26.45;24.75;;;5.70;50.20;;;;;;5093198;28;20202;-77
2021/03/06 10:37:13;;;;;;;27.52;25.83;;;5.80;50.40;;;;;;5092764;28;20573;-77
2021/03/06 10:40:03;;;;;;;27.13;25.52;;;5.80;50.10;;;;;;5092707;28;20261;-77
2021/03/06 10:42:42;;;;;;;27.35;25.65;;;5.90;50.20;;;;;;5093237;28;20538;-77
2021/03/06 10:45:10;;;;;;;27.38;25.67;;;5.90;50.20;;;;;;5093045;28;20725;-77
2021/03/06 10:47:47;;;;;;;27.40;25.73;;;5.80;49.40;;;;;;5092994;28;20200;-77
2021/03/06 10:50:22;;;;;;;27.15;25.55;;;6.00;49.60;;;;;;5093281;28;20284;-77
2021/03/06 10:52:48;;;;;;;26.88;25.13;;;6.10;49.10;;;;;;5093413;28;20260;-77
2021/03/06 10:55:15;;;;;;;26.75;25.15;;;6.00;50.30;;;;;;5093109;28;20207;-77
2021/03/06 10:57:49;;;;;;;26.88;25.25;;;5.90;50.70;;;;;;5092872;28;20211;-77
2021/03/06 11:00:21;;;;;;;26.77;25.08;;;5.70;50.70;;;;;;5092875;28;20683;-77
2021/03/06 11:02:56;;;;;;;27.58;25.92;;;5.60;51.40;;;;;;5092862;28;20209;-77
2021/03/06 11:05:26;;;;;;;28.05;26.35;;;5.60;51.60;;;;;;5093015;28;20191;-77
2021/03/06 11:07:53;;;;;;;26.58;24.98;;;5.50;51.60;;;;;;5093152;28;20197;-77
2021/03/06 11:10:21;;;;;;;27.23;25.52;;;5.60;50.80;;;;;;5092944;28;20211;-77
2021/03/06 11:12:56;;;;;;;27.45;25.55;;;5.70;50.60;;;;;;5092758;28;20202;-77
2021/03/06 11:15:25;;;;;;;26.65;25.13;;;5.70;50.80;;;;;;5092842;28;20195;-77
2021/03/06 11:17:54;;;;;;;26.60;24.95;;;5.80;50.70;;;;;;5092382;28;20697;-77
2021/03/06 11:20:23;;;;;;;27.20;25.50;;;5.70;51.20;;;;;;5093040;28;20204;-77
2021/03/06 11:22:50;;;;;;;27.40;25.70;;;5.80;50.40;;;;;;5092594;28;20631;-77
2021/03/06 11:25:18;;;;;;;26.58;24.95;;;6.00;49.00;;;;;;5093426;28;20245;-77
2021/03/06 11:27:50;;;;;;;26.25;24.75;;;5.90;48.90;;;;;;5092364;28;20286;-77
2021/03/06 11:30:21;;;;;;;26.02;24.52;;;5.90;49.40;;;;;;5092709;28;20196;-77
2021/03/06 11:32:47;;;;;;;27.08;25.27;;;6.00;49.60;;;;;;5092604;28;20204;-77
2021/03/06 11:35:15;;;;;;;26.73;24.92;;;5.90;48.80;;;;;;5092364;28;20205;-77
2021/03/06 11:37:42;;;;;;;25.50;24.10;;;5.90;49.00;;;;;;5092225;28;20216;-77
2021/03/06 11:40:11;;;;;;;26.65;25.10;;;5.90;49.10;;;;;;5092364;28;20221;-77
2021/03/06 11:42:38;;;;;;;27.17;25.50;;;6.00;48.80;;;;;;5092472;28;20204;-77
2021/03/06 11:45:07;;;;;;;26.05;24.55;;;6.10;47.90;;;;;;5092190;28;20229;-77
2021/03/06 11:47:33;;;;;;;27.20;25.60;;;6.00;47.80;;;;;;5092174;28;20650;-77
2021/03/06 11:50:00;;;;;;;26.92;25.33;;;6.00;47.90;;;;;;5092236;28;20225;-77
2021/03/06 11:52:27;;;;;;;26.63;25.02;;;6.00;47.80;;;;;;5092382;28;20199;-77
2021/03/06 11:54:54;;;;;;;27.20;25.50;;;6.10;47.70;;;;;;5092399;28;20195;-77
2021/03/06 11:57:20;;;;;;;26.70;25.20;;;6.20;47.40;;;;;;5092093;28;20214;-77
2021/03/06 11:59:47;;;;;;;27.73;26.02;;;6.50;47.50;;;;;;5092134;28;20253;-77
2021/03/06 12:02:13;;;;;;;26.67;25.17;;;6.50;47.00;;;;;;5092220;28;20282;-76
2021/03/06 12:04:39;;;;;;;26.80;25.30;;;6.50;47.50;;;;;;5092211;28;20294;-77
2021/03/06 12:07:06;;;;;;;26.80;25.20;;;6.50;46.20;;;;;;5094629;28;20202;-77
2021/03/06 12:09:32;;;;;;;28.63;26.83;;;6.40;45.90;;;;;;5096148;28;20267;-77
2021/03/06 12:11:59;;;;;;;26.17;24.63;;;6.40;45.70;;;;;;5096987;28;20199;-77
2021/03/06 12:14:25;;;;;;;26.48;24.98;;;6.60;44.70;;;;;;5098656;28;20659;-77
2021/03/06 12:16:52;;;;;;;26.88;25.20;;;6.70;44.10;;;;;;5095511;28;20222;-76
2021/03/06 12:19:18;;;;;;;26.80;25.20;;;6.70;44.40;;;;;;5095641;28;20591;-77
2021/03/06 12:21:44;;;;;;;26.30;24.38;;;6.70;44.50;;;;;;5095500;28;20296;-77
2021/03/06 12:24:11;;;;;;;25.95;24.27;;;6.70;45.00;;;;;;5095649;28;20195;-77
2021/03/06 12:26:37;;;;;;;26.15;24.55;;;6.80;44.60;;;;;;5095293;28;20278;-77
2021/03/06 12:29:05;;;;;;;26.15;24.65;;;6.90;44.10;;;;;;5095402;28;20217;-78
2021/03/06 12:31:32;;;;;;;27.30;25.35;;;6.90;43.80;;;;;;5095247;28;20712;-77
2021/03/06 12:33:58;;;;;;;26.08;24.27;;;6.90;44.00;;;;;;5095247;28;20195;-77
2021/03/06 12:36:25;;;;;;;26.05;24.55;;;7.10;43.10;;;;;;5094992;28;20233;-76
2021/03/06 12:38:51;;;;;;;25.58;24.08;;;7.20;43.60;;;;;;5095168;28;20250;-77
2021/03/06 12:41:17;;;;;;;27.77;25.98;;;7.40;44.20;;;;;;5094921;28;20612;-77